ETD575 OMAA-OEDF
Flight info
| Callsign | ETD575 |
|---|---|
| Flight time | 1h 51m |
| Altitude | 25000 |
| Route | ORNEL DCT ELUDA/N0457F260 G783 RIGIL M628 PEKEM DCT RAPMA DCT ASRUV/N0449F250 DCT TAKTI N687 KFA |
| Aircraft | A320/M-SDE3FGHIRWY/LB1 |
Departure
| Time | 2026-04-24 22:27 |
|---|---|
| Airport | Zayed International Airport (OMAA) |
Arrival
| Time | 2026-04-25 00:18 |
|---|---|
| Airport | King Fahd International Airport (OEDF) |
| Time | Latitude | Longitude | Altitude | Speed | Heading |
|---|---|---|---|---|---|
| 2026-04-24 21:55 | 24.44484 | 54.64538 | 76 ft | 0 kts | 307° |
| 2026-04-24 22:13 | 24.44482 | 54.64540 | 68 ft | 2 kts | 307° |
| 2026-04-24 22:13 | 24.44472 | 54.64555 | 75 ft | 2 kts | 307° |
| 2026-04-24 22:13 | 24.44462 | 54.64569 | 76 ft | 2 kts | 307° |
| 2026-04-24 22:13 | 24.44452 | 54.64584 | 74 ft | 2 kts | 308° |
| 2026-04-24 22:14 | 24.44442 | 54.64598 | 70 ft | 2 kts | 307° |
| 2026-04-24 22:14 | 24.44433 | 54.64613 | 68 ft | 2 kts | 272° |
| 2026-04-24 22:14 | 24.44438 | 54.64630 | 67 ft | 2 kts | 241° |
| 2026-04-24 22:14 | 24.44446 | 54.64646 | 65 ft | 2 kts | 224° |
| 2026-04-24 22:15 | 24.44459 | 54.64657 | 70 ft | 2 kts | 216° |
| 2026-04-24 22:15 | 24.44472 | 54.64667 | 69 ft | 2 kts | 215° |
| 2026-04-24 22:15 | 24.44476 | 54.64670 | 71 ft | 0 kts | 216° |
| 2026-04-24 22:17 | 24.44472 | 54.64666 | 69 ft | 2 kts | 219° |
| 2026-04-24 22:17 | 24.44459 | 54.64655 | 71 ft | 3 kts | 219° |
| 2026-04-24 22:17 | 24.44437 | 54.64636 | 68 ft | 5 kts | 218° |
| 2026-04-24 22:17 | 24.44408 | 54.64611 | 71 ft | 6 kts | 218° |
| 2026-04-24 22:18 | 24.44372 | 54.64580 | 73 ft | 7 kts | 218° |
| 2026-04-24 22:18 | 24.44328 | 54.64542 | 72 ft | 9 kts | 218° |
| 2026-04-24 22:18 | 24.44277 | 54.64498 | 70 ft | 10 kts | 216° |
| 2026-04-24 22:18 | 24.44220 | 54.64521 | 74 ft | 10 kts | 126° |
| 2026-04-24 22:19 | 24.44177 | 54.64587 | 72 ft | 11 kts | 126° |
| 2026-04-24 22:19 | 24.44124 | 54.64658 | 73 ft | 13 kts | 129° |
| 2026-04-24 22:19 | 24.44067 | 54.64737 | 74 ft | 14 kts | 128° |
| 2026-04-24 22:19 | 24.43992 | 54.64774 | 76 ft | 13 kts | 197° |
| 2026-04-24 22:20 | 24.43920 | 54.64732 | 66 ft | 12 kts | 172° |
| 2026-04-24 22:20 | 24.43864 | 54.64800 | 69 ft | 13 kts | 124° |
| 2026-04-24 22:20 | 24.43806 | 54.64878 | 68 ft | 14 kts | 128° |
| 2026-04-24 22:20 | 24.43744 | 54.64967 | 74 ft | 15 kts | 128° |
| 2026-04-24 22:21 | 24.43674 | 54.65061 | 72 ft | 17 kts | 129° |
| 2026-04-24 22:21 | 24.43603 | 54.65166 | 76 ft | 18 kts | 126° |
| 2026-04-24 22:21 | 24.43524 | 54.65277 | 71 ft | 19 kts | 128° |
| 2026-04-24 22:21 | 24.43439 | 54.65395 | 68 ft | 20 kts | 129° |
| 2026-04-24 22:22 | 24.43350 | 54.65521 | 68 ft | 22 kts | 127° |
| 2026-04-24 22:22 | 24.43255 | 54.65655 | 76 ft | 23 kts | 128° |
| 2026-04-24 22:22 | 24.43155 | 54.65796 | 76 ft | 24 kts | 128° |
| 2026-04-24 22:22 | 24.43051 | 54.65945 | 76 ft | 25 kts | 130° |
| 2026-04-24 22:23 | 24.42941 | 54.66098 | 76 ft | 26 kts | 128° |
| 2026-04-24 22:23 | 24.42836 | 54.66245 | 74 ft | 27 kts | 127° |
| 2026-04-24 22:23 | 24.42722 | 54.66409 | 72 ft | 28 kts | 129° |
| 2026-04-24 22:23 | 24.42610 | 54.66564 | 71 ft | 23 kts | 127° |
| 2026-04-24 22:24 | 24.42517 | 54.66696 | 76 ft | 18 kts | 127° |
| 2026-04-24 22:24 | 24.42455 | 54.66776 | 75 ft | 9 kts | 155° |
| 2026-04-24 22:24 | 24.42399 | 54.66747 | 74 ft | 10 kts | 218° |
| 2026-04-24 22:24 | 24.42341 | 54.66696 | 68 ft | 11 kts | 218° |
| 2026-04-24 22:25 | 24.42271 | 54.66638 | 71 ft | 13 kts | 216° |
| 2026-04-24 22:25 | 24.42257 | 54.66593 | 75 ft | 5 kts | 295° |
| 2026-04-24 22:25 | 24.42295 | 54.66541 | 75 ft | 25 kts | 308° |
| 2026-04-24 22:25 | 24.42531 | 54.66212 | 73 ft | 82 kts | 308° |
| 2026-04-24 22:26 | 24.42969 | 54.65589 | 71 ft | 125 kts | 307° |
| 2026-04-24 22:26 | 24.43580 | 54.64738 | 69 ft | 155 kts | 309° |
| 2026-04-24 22:26 | 24.44266 | 54.63740 | 262 ft | 161 kts | 309° |
| 2026-04-24 22:26 | 24.44918 | 54.62779 | 683 ft | 158 kts | 309° |
| 2026-04-24 22:27 | 24.45630 | 54.61779 | 875 ft | 179 kts | 310° |
| 2026-04-24 22:27 | 24.46450 | 54.60654 | 1044 ft | 197 kts | 310° |
| 2026-04-24 22:27 | 24.47336 | 54.59424 | 1317 ft | 213 kts | 310° |
| 2026-04-24 22:27 | 24.48302 | 54.58071 | 1622 ft | 230 kts | 310° |
| 2026-04-24 22:28 | 24.49307 | 54.56657 | 1946 ft | 246 kts | 310° |
| 2026-04-24 22:28 | 24.50399 | 54.55160 | 2324 ft | 261 kts | 316° |
| 2026-04-24 22:28 | 24.51921 | 54.54041 | 2923 ft | 263 kts | 342° |
| 2026-04-24 22:28 | 24.53716 | 54.53787 | 3615 ft | 264 kts | 7° |
| 2026-04-24 22:29 | 24.56718 | 54.55979 | 4832 ft | 275 kts | 62° |
| 2026-04-24 22:29 | 24.57271 | 54.58003 | 5418 ft | 281 kts | 80° |
| 2026-04-24 22:29 | 24.57615 | 54.60157 | 6011 ft | 286 kts | 81° |
| 2026-04-24 22:30 | 24.57952 | 54.62310 | 6622 ft | 290 kts | 81° |
| 2026-04-24 22:30 | 24.58297 | 54.64513 | 7238 ft | 294 kts | 81° |
| 2026-04-24 22:30 | 24.58645 | 54.66738 | 7866 ft | 297 kts | 81° |
| 2026-04-24 22:30 | 24.58884 | 54.68256 | 8291 ft | 299 kts | 81° |
| 2026-04-24 22:31 | 24.59245 | 54.70528 | 8920 ft | 302 kts | 81° |
| 2026-04-24 22:31 | 24.59607 | 54.72817 | 9561 ft | 305 kts | 83° |
| 2026-04-24 22:31 | 24.59694 | 54.74387 | 9960 ft | 305 kts | 95° |
| 2026-04-24 22:31 | 24.59033 | 54.77357 | 10717 ft | 304 kts | 118° |
| 2026-04-24 22:32 | 24.58318 | 54.78696 | 10975 ft | 309 kts | 129° |
| 2026-04-24 22:32 | 24.56817 | 54.80441 | 11234 ft | 321 kts | 139° |
| 2026-04-24 22:32 | 24.55156 | 54.82173 | 11438 ft | 337 kts | 138° |
| 2026-04-24 22:32 | 24.53417 | 54.84000 | 11629 ft | 353 kts | 138° |
| 2026-04-24 22:33 | 24.51585 | 54.85930 | 11855 ft | 366 kts | 138° |
| 2026-04-24 22:33 | 24.49757 | 54.87856 | 12318 ft | 371 kts | 137° |
| 2026-04-24 22:33 | 24.48126 | 54.89576 | 12768 ft | 374 kts | 137° |
| 2026-04-24 22:33 | 24.46249 | 54.91554 | 13282 ft | 377 kts | 137° |
| 2026-04-24 22:34 | 24.44343 | 54.93562 | 13771 ft | 381 kts | 137° |
| 2026-04-24 22:34 | 24.42404 | 54.95606 | 14227 ft | 384 kts | 137° |
| 2026-04-24 22:34 | 24.40473 | 54.97641 | 14693 ft | 387 kts | 137° |
| 2026-04-24 22:34 | 24.38518 | 54.99702 | 15157 ft | 390 kts | 137° |
| 2026-04-24 22:35 | 24.36546 | 55.01777 | 15613 ft | 393 kts | 137° |
| 2026-04-24 22:35 | 24.34565 | 55.03857 | 16074 ft | 396 kts | 137° |
| 2026-04-24 22:35 | 24.32562 | 55.05962 | 16535 ft | 399 kts | 137° |
| 2026-04-24 22:35 | 24.30532 | 55.08061 | 17007 ft | 402 kts | 139° |
| 2026-04-24 22:36 | 24.28455 | 55.10135 | 17487 ft | 405 kts | 140° |
| 2026-04-24 22:36 | 24.26347 | 55.12195 | 17948 ft | 408 kts | 140° |
| 2026-04-24 22:36 | 24.24214 | 55.14266 | 18387 ft | 411 kts | 140° |
| 2026-04-24 22:36 | 24.22073 | 55.16350 | 18800 ft | 414 kts | 140° |
| 2026-04-24 22:37 | 24.19906 | 55.18469 | 19232 ft | 417 kts | 140° |
| 2026-04-24 22:37 | 24.17740 | 55.20601 | 19673 ft | 420 kts | 140° |
| 2026-04-24 22:37 | 24.15559 | 55.22752 | 20114 ft | 423 kts | 140° |
| 2026-04-24 22:37 | 24.13374 | 55.24911 | 20539 ft | 425 kts | 140° |
| 2026-04-24 22:38 | 24.11167 | 55.27091 | 20952 ft | 428 kts | 140° |
| 2026-04-24 22:38 | 24.08952 | 55.29270 | 21346 ft | 431 kts | 140° |
| 2026-04-24 22:38 | 24.06693 | 55.31486 | 21745 ft | 433 kts | 140° |
| 2026-04-24 22:38 | 24.04367 | 55.33585 | 22114 ft | 434 kts | 147° |
| 2026-04-24 22:39 | 24.01904 | 55.35501 | 22478 ft | 436 kts | 147° |
| 2026-04-24 22:39 | 23.99418 | 55.37430 | 22839 ft | 439 kts | 147° |
| 2026-04-24 22:39 | 23.96924 | 55.39366 | 23192 ft | 441 kts | 147° |
| 2026-04-24 22:39 | 23.94411 | 55.41319 | 23531 ft | 443 kts | 147° |
| 2026-04-24 22:40 | 23.91893 | 55.43276 | 23824 ft | 445 kts | 147° |
| 2026-04-24 22:40 | 23.89253 | 55.45043 | 24099 ft | 444 kts | 157° |
| 2026-04-24 22:40 | 23.86378 | 55.46240 | 24384 ft | 441 kts | 168° |
| 2026-04-24 22:40 | 23.83358 | 55.46825 | 24663 ft | 439 kts | 179° |
| 2026-04-24 22:41 | 23.80309 | 55.46793 | 24843 ft | 436 kts | 189° |
| 2026-04-24 22:41 | 23.77346 | 55.46164 | 24890 ft | 440 kts | 198° |
| 2026-04-24 22:41 | 23.74353 | 55.45265 | 24891 ft | 448 kts | 198° |
| 2026-04-24 22:41 | 23.71312 | 55.44354 | 24887 ft | 456 kts | 198° |
| 2026-04-24 22:42 | 23.68230 | 55.43433 | 24886 ft | 463 kts | 198° |
| 2026-04-24 22:42 | 23.65093 | 55.42500 | 24884 ft | 470 kts | 198° |
| 2026-04-24 22:42 | 23.61917 | 55.41557 | 24880 ft | 476 kts | 198° |
| 2026-04-24 22:42 | 23.58717 | 55.40612 | 24880 ft | 477 kts | 197° |
| 2026-04-24 22:43 | 23.55505 | 55.39666 | 24882 ft | 478 kts | 197° |
| 2026-04-24 22:43 | 23.52293 | 55.38721 | 24881 ft | 478 kts | 197° |
| 2026-04-24 22:43 | 23.49083 | 55.37776 | 24874 ft | 478 kts | 197° |
| 2026-04-24 22:43 | 23.45879 | 55.36832 | 24876 ft | 478 kts | 197° |
| 2026-04-24 22:44 | 23.42624 | 55.35870 | 24876 ft | 478 kts | 198° |
| 2026-04-24 22:44 | 23.39408 | 55.34921 | 24871 ft | 478 kts | 197° |
| 2026-04-24 22:44 | 23.36202 | 55.33975 | 24873 ft | 478 kts | 197° |
| 2026-04-24 22:44 | 23.32984 | 55.33024 | 24866 ft | 478 kts | 197° |
| 2026-04-24 22:45 | 23.29772 | 55.32074 | 24859 ft | 478 kts | 197° |
| 2026-04-24 22:45 | 23.26556 | 55.31125 | 24855 ft | 479 kts | 197° |
| 2026-04-24 22:45 | 23.23342 | 55.30176 | 24859 ft | 479 kts | 197° |
| 2026-04-24 22:45 | 23.20124 | 55.29223 | 24857 ft | 479 kts | 197° |
| 2026-04-24 22:46 | 23.16908 | 55.28276 | 24855 ft | 479 kts | 197° |
| 2026-04-24 22:46 | 23.13689 | 55.27332 | 24856 ft | 479 kts | 197° |
| 2026-04-24 22:46 | 23.10474 | 55.26359 | 24849 ft | 479 kts | 200° |
| 2026-04-24 22:46 | 23.07472 | 55.24858 | 24841 ft | 475 kts | 214° |
| 2026-04-24 22:47 | 23.04860 | 55.22598 | 24837 ft | 471 kts | 227° |
| 2026-04-24 22:47 | 23.02868 | 55.19802 | 24833 ft | 469 kts | 240° |
| 2026-04-24 22:47 | 23.01525 | 55.16583 | 24833 ft | 468 kts | 253° |
| 2026-04-24 22:47 | 23.00770 | 55.13150 | 24834 ft | 468 kts | 258° |
| 2026-04-24 22:48 | 23.00093 | 55.09693 | 24836 ft | 468 kts | 258° |
| 2026-04-24 22:48 | 22.99419 | 55.06238 | 24839 ft | 468 kts | 258° |
| 2026-04-24 22:48 | 22.98745 | 55.02785 | 24842 ft | 468 kts | 258° |
| 2026-04-24 22:48 | 22.98070 | 54.99331 | 24843 ft | 468 kts | 258° |
| 2026-04-24 22:49 | 22.97389 | 54.95876 | 24842 ft | 468 kts | 258° |
| 2026-04-24 22:49 | 22.96704 | 54.92427 | 24842 ft | 468 kts | 258° |
| 2026-04-24 22:49 | 22.96015 | 54.88967 | 24843 ft | 468 kts | 258° |
| 2026-04-24 22:49 | 22.95326 | 54.85516 | 24847 ft | 468 kts | 258° |
| 2026-04-24 22:50 | 22.94636 | 54.82066 | 24845 ft | 468 kts | 258° |
| 2026-04-24 22:50 | 22.93949 | 54.78632 | 24850 ft | 468 kts | 258° |
| 2026-04-24 22:50 | 22.93262 | 54.75169 | 24850 ft | 468 kts | 258° |
| 2026-04-24 22:50 | 22.92582 | 54.71714 | 24858 ft | 470 kts | 258° |
| 2026-04-24 22:51 | 22.91893 | 54.68235 | 24863 ft | 474 kts | 258° |
| 2026-04-24 22:51 | 22.91192 | 54.64726 | 24862 ft | 475 kts | 258° |
| 2026-04-24 22:51 | 22.90481 | 54.61176 | 24865 ft | 475 kts | 258° |
| 2026-04-24 22:51 | 22.89791 | 54.57724 | 24863 ft | 475 kts | 258° |
| 2026-04-24 22:52 | 22.89076 | 54.54175 | 24867 ft | 475 kts | 258° |
| 2026-04-24 22:52 | 22.88377 | 54.50717 | 24867 ft | 475 kts | 258° |
| 2026-04-24 22:52 | 22.87668 | 54.47212 | 24869 ft | 475 kts | 258° |
| 2026-04-24 22:52 | 22.86963 | 54.43721 | 24868 ft | 475 kts | 258° |
| 2026-04-24 22:53 | 22.86249 | 54.40175 | 24872 ft | 475 kts | 258° |
| 2026-04-24 22:53 | 22.85551 | 54.36698 | 24866 ft | 475 kts | 258° |
| 2026-04-24 22:53 | 22.84845 | 54.33195 | 24865 ft | 475 kts | 258° |
| 2026-04-24 22:53 | 22.84162 | 54.29800 | 24864 ft | 475 kts | 258° |
| 2026-04-24 22:54 | 22.83458 | 54.26300 | 24863 ft | 475 kts | 258° |
| 2026-04-24 22:54 | 22.82790 | 54.23004 | 24865 ft | 475 kts | 258° |
| 2026-04-24 22:54 | 22.82080 | 54.19517 | 24868 ft | 475 kts | 258° |
| 2026-04-24 22:54 | 22.81367 | 54.16007 | 24867 ft | 474 kts | 258° |
| 2026-04-24 22:55 | 22.80658 | 54.12514 | 24869 ft | 474 kts | 258° |
| 2026-04-24 22:55 | 22.79947 | 54.09024 | 24867 ft | 474 kts | 258° |
| 2026-04-24 22:55 | 22.79236 | 54.05549 | 24874 ft | 474 kts | 258° |
| 2026-04-24 22:55 | 22.78543 | 54.02071 | 24870 ft | 474 kts | 260° |
| 2026-04-24 22:56 | 22.78258 | 53.98484 | 24866 ft | 473 kts | 271° |
| 2026-04-24 22:56 | 22.78561 | 53.94948 | 24864 ft | 473 kts | 277° |
| 2026-04-24 22:56 | 22.79007 | 53.91415 | 24869 ft | 473 kts | 277° |
| 2026-04-24 22:56 | 22.79450 | 53.87872 | 24868 ft | 473 kts | 277° |
| 2026-04-24 22:57 | 22.79891 | 53.84335 | 24869 ft | 473 kts | 277° |
| 2026-04-24 22:57 | 22.80187 | 53.81951 | 24870 ft | 473 kts | 277° |
| 2026-04-24 22:57 | 22.80624 | 53.78420 | 24871 ft | 473 kts | 277° |
| 2026-04-24 22:57 | 22.81058 | 53.74880 | 24870 ft | 473 kts | 277° |
| 2026-04-24 22:58 | 22.81489 | 53.71345 | 24871 ft | 473 kts | 277° |
| 2026-04-24 22:58 | 22.81922 | 53.67814 | 24872 ft | 473 kts | 277° |
| 2026-04-24 22:58 | 22.82356 | 53.64281 | 24870 ft | 472 kts | 277° |
| 2026-04-24 22:58 | 22.82787 | 53.60761 | 24874 ft | 472 kts | 277° |
| 2026-04-24 22:59 | 22.83217 | 53.57225 | 24874 ft | 472 kts | 277° |
| 2026-04-24 22:59 | 22.83646 | 53.53700 | 24878 ft | 472 kts | 277° |
| 2026-04-24 22:59 | 22.84498 | 53.46668 | 24876 ft | 471 kts | 277° |
| 2026-04-24 23:00 | 22.84924 | 53.43140 | 24877 ft | 472 kts | 277° |
| 2026-04-24 23:00 | 22.85350 | 53.39626 | 24878 ft | 471 kts | 277° |
| 2026-04-24 23:00 | 22.85777 | 53.36101 | 24881 ft | 471 kts | 277° |
| 2026-04-24 23:00 | 22.86204 | 53.32572 | 24879 ft | 471 kts | 277° |
| 2026-04-24 23:01 | 22.86629 | 53.29059 | 24879 ft | 471 kts | 277° |
| 2026-04-24 23:01 | 22.87055 | 53.25533 | 24879 ft | 471 kts | 277° |
| 2026-04-24 23:01 | 22.87477 | 53.22020 | 24879 ft | 471 kts | 277° |
| 2026-04-24 23:01 | 22.87898 | 53.18501 | 24881 ft | 471 kts | 277° |
| 2026-04-24 23:02 | 22.88318 | 53.14970 | 24881 ft | 470 kts | 277° |
| 2026-04-24 23:02 | 22.88737 | 53.11447 | 24881 ft | 470 kts | 277° |
| 2026-04-24 23:02 | 22.89155 | 53.07938 | 24883 ft | 470 kts | 277° |
| 2026-04-24 23:02 | 22.89573 | 53.04418 | 24887 ft | 470 kts | 277° |
| 2026-04-24 23:03 | 22.89993 | 53.00859 | 24887 ft | 470 kts | 277° |
| 2026-04-24 23:03 | 22.90409 | 52.97337 | 24886 ft | 470 kts | 277° |
| 2026-04-24 23:03 | 22.90825 | 52.93836 | 24883 ft | 469 kts | 277° |
| 2026-04-24 23:03 | 22.91241 | 52.90321 | 24883 ft | 469 kts | 277° |
| 2026-04-24 23:04 | 22.91653 | 52.86805 | 24884 ft | 469 kts | 277° |
| 2026-04-24 23:04 | 22.92063 | 52.83300 | 24888 ft | 469 kts | 277° |
| 2026-04-24 23:04 | 22.92473 | 52.79799 | 24889 ft | 469 kts | 277° |
| 2026-04-24 23:04 | 22.92878 | 52.76345 | 24886 ft | 469 kts | 277° |
| 2026-04-24 23:05 | 22.93289 | 52.72830 | 24887 ft | 469 kts | 277° |
| 2026-04-24 23:05 | 22.93696 | 52.69323 | 24894 ft | 468 kts | 277° |
| 2026-04-24 23:05 | 22.94101 | 52.65819 | 24892 ft | 468 kts | 277° |
| 2026-04-24 23:05 | 22.94508 | 52.62319 | 24888 ft | 468 kts | 277° |
| 2026-04-24 23:06 | 22.94919 | 52.58817 | 24886 ft | 468 kts | 277° |
| 2026-04-24 23:06 | 22.95330 | 52.55310 | 24887 ft | 468 kts | 277° |
| 2026-04-24 23:06 | 22.95736 | 52.51811 | 24885 ft | 467 kts | 277° |
| 2026-04-24 23:06 | 22.96142 | 52.48300 | 24886 ft | 467 kts | 277° |
| 2026-04-24 23:07 | 22.96544 | 52.44793 | 24887 ft | 467 kts | 277° |
| 2026-04-24 23:07 | 22.96943 | 52.41295 | 24887 ft | 467 kts | 277° |
| 2026-04-24 23:07 | 22.97339 | 52.37805 | 24887 ft | 467 kts | 277° |
| 2026-04-24 23:07 | 22.97744 | 52.34251 | 24886 ft | 467 kts | 277° |
| 2026-04-24 23:08 | 22.98135 | 52.30802 | 24887 ft | 467 kts | 277° |
| 2026-04-24 23:08 | 22.98537 | 52.27255 | 24888 ft | 467 kts | 277° |
| 2026-04-24 23:08 | 22.98931 | 52.23806 | 24886 ft | 467 kts | 277° |
| 2026-04-24 23:08 | 22.99333 | 52.20270 | 24889 ft | 466 kts | 277° |
| 2026-04-24 23:09 | 22.99729 | 52.16777 | 24890 ft | 466 kts | 277° |
| 2026-04-24 23:09 | 23.00124 | 52.13285 | 24893 ft | 466 kts | 277° |
| 2026-04-24 23:09 | 23.00519 | 52.09791 | 24893 ft | 466 kts | 277° |
| 2026-04-24 23:09 | 23.00911 | 52.06301 | 24894 ft | 466 kts | 277° |
| 2026-04-24 23:10 | 23.01302 | 52.02809 | 24895 ft | 466 kts | 277° |
| 2026-04-24 23:10 | 23.01691 | 51.99314 | 24895 ft | 466 kts | 277° |
| 2026-04-24 23:10 | 23.02081 | 51.95821 | 24899 ft | 466 kts | 277° |
| 2026-04-24 23:10 | 23.02470 | 51.92334 | 24901 ft | 466 kts | 277° |
| 2026-04-24 23:11 | 23.02859 | 51.88842 | 24899 ft | 465 kts | 277° |
| 2026-04-24 23:11 | 23.03247 | 51.85339 | 24903 ft | 465 kts | 277° |
| 2026-04-24 23:11 | 23.03627 | 51.81894 | 24905 ft | 465 kts | 277° |
| 2026-04-24 23:11 | 23.04010 | 51.78407 | 24904 ft | 465 kts | 277° |
| 2026-04-24 23:12 | 23.04394 | 51.74915 | 24907 ft | 465 kts | 277° |
| 2026-04-24 23:12 | 23.04782 | 51.71386 | 24907 ft | 465 kts | 277° |
| 2026-04-24 23:12 | 23.05166 | 51.67899 | 24904 ft | 465 kts | 277° |
| 2026-04-24 23:12 | 23.05550 | 51.64415 | 24900 ft | 465 kts | 277° |
| 2026-04-24 23:13 | 23.05931 | 51.60934 | 24906 ft | 465 kts | 277° |
| 2026-04-24 23:13 | 23.06312 | 51.57443 | 24901 ft | 465 kts | 277° |
| 2026-04-24 23:13 | 23.06685 | 51.54009 | 24902 ft | 464 kts | 276° |
| 2026-04-24 23:13 | 23.07069 | 51.50480 | 24903 ft | 465 kts | 276° |
| 2026-04-24 23:14 | 23.07446 | 51.47002 | 24904 ft | 464 kts | 276° |
| 2026-04-24 23:14 | 23.07825 | 51.43510 | 24900 ft | 464 kts | 276° |
| 2026-04-24 23:14 | 23.08202 | 51.40026 | 24902 ft | 464 kts | 276° |
| 2026-04-24 23:14 | 23.08577 | 51.36545 | 24903 ft | 464 kts | 276° |
| 2026-04-24 23:15 | 23.08951 | 51.33067 | 24849 ft | 463 kts | 276° |
| 2026-04-24 23:15 | 23.09326 | 51.29591 | 24864 ft | 463 kts | 276° |
| 2026-04-24 23:15 | 23.09699 | 51.26126 | 24872 ft | 463 kts | 276° |
| 2026-04-24 23:15 | 23.10074 | 51.22641 | 24879 ft | 463 kts | 276° |
| 2026-04-24 23:16 | 23.10447 | 51.19167 | 24882 ft | 463 kts | 276° |
| 2026-04-24 23:16 | 23.10818 | 51.15697 | 24885 ft | 463 kts | 276° |
| 2026-04-24 23:16 | 23.11188 | 51.12217 | 24885 ft | 463 kts | 275° |
| 2026-04-24 23:16 | 23.11554 | 51.08747 | 24888 ft | 463 kts | 275° |
| 2026-04-24 23:17 | 23.11919 | 51.05277 | 24888 ft | 463 kts | 275° |
| 2026-04-24 23:17 | 23.12282 | 51.01801 | 24885 ft | 463 kts | 275° |
| 2026-04-24 23:17 | 23.12648 | 50.98326 | 24886 ft | 463 kts | 275° |
| 2026-04-24 23:17 | 23.13014 | 50.94851 | 24885 ft | 463 kts | 275° |
| 2026-04-24 23:18 | 23.13380 | 50.91377 | 24887 ft | 463 kts | 275° |
| 2026-04-24 23:18 | 23.13744 | 50.87912 | 24888 ft | 463 kts | 275° |
| 2026-04-24 23:18 | 23.14113 | 50.84397 | 24888 ft | 463 kts | 275° |
| 2026-04-24 23:18 | 23.14474 | 50.80930 | 24884 ft | 463 kts | 275° |
| 2026-04-24 23:19 | 23.14835 | 50.77454 | 24887 ft | 463 kts | 275° |
| 2026-04-24 23:19 | 23.15195 | 50.73977 | 24889 ft | 463 kts | 275° |
| 2026-04-24 23:19 | 23.15554 | 50.70501 | 24885 ft | 463 kts | 275° |
| 2026-04-24 23:19 | 23.15913 | 50.67024 | 24888 ft | 463 kts | 275° |
| 2026-04-24 23:20 | 23.16272 | 50.63561 | 24889 ft | 463 kts | 275° |
| 2026-04-24 23:20 | 23.16635 | 50.60086 | 24886 ft | 463 kts | 275° |
| 2026-04-24 23:20 | 23.16998 | 50.56602 | 24891 ft | 463 kts | 275° |
| 2026-04-24 23:20 | 23.17356 | 50.53127 | 24892 ft | 463 kts | 275° |
| 2026-04-24 23:21 | 23.17709 | 50.49657 | 24895 ft | 463 kts | 275° |
| 2026-04-24 23:21 | 23.18062 | 50.46184 | 24895 ft | 463 kts | 275° |
| 2026-04-24 23:21 | 23.18413 | 50.42705 | 24894 ft | 462 kts | 275° |
| 2026-04-24 23:21 | 23.18764 | 50.39229 | 24897 ft | 463 kts | 275° |
| 2026-04-24 23:22 | 23.19117 | 50.35758 | 24898 ft | 463 kts | 275° |
| 2026-04-24 23:22 | 23.19471 | 50.32288 | 24903 ft | 463 kts | 275° |
| 2026-04-24 23:22 | 23.19825 | 50.28808 | 24910 ft | 462 kts | 275° |
| 2026-04-24 23:22 | 23.20179 | 50.25328 | 24909 ft | 462 kts | 275° |
| 2026-04-24 23:23 | 23.20529 | 50.21863 | 24906 ft | 462 kts | 275° |
| 2026-04-24 23:23 | 23.20880 | 50.18376 | 24904 ft | 462 kts | 275° |
| 2026-04-24 23:23 | 23.21225 | 50.14911 | 24901 ft | 462 kts | 275° |
| 2026-04-24 23:23 | 23.21570 | 50.11427 | 24902 ft | 462 kts | 275° |
| 2026-04-24 23:24 | 23.21912 | 50.07961 | 24903 ft | 462 kts | 275° |
| 2026-04-24 23:24 | 23.22254 | 50.04489 | 24904 ft | 462 kts | 275° |
| 2026-04-24 23:24 | 23.22598 | 50.01004 | 24901 ft | 462 kts | 275° |
| 2026-04-24 23:24 | 23.22942 | 49.97534 | 24898 ft | 462 kts | 275° |
| 2026-04-24 23:25 | 23.23289 | 49.94053 | 24902 ft | 462 kts | 275° |
| 2026-04-24 23:25 | 23.23635 | 49.90582 | 24906 ft | 462 kts | 275° |
| 2026-04-24 23:25 | 23.23976 | 49.87108 | 24902 ft | 462 kts | 275° |
| 2026-04-24 23:25 | 23.24312 | 49.83643 | 24902 ft | 462 kts | 275° |
| 2026-04-24 23:26 | 23.24650 | 49.80162 | 24900 ft | 462 kts | 275° |
| 2026-04-24 23:26 | 23.24989 | 49.76696 | 24900 ft | 462 kts | 275° |
| 2026-04-24 23:26 | 23.25327 | 49.73213 | 24901 ft | 462 kts | 275° |
| 2026-04-24 23:26 | 23.25663 | 49.69742 | 24901 ft | 462 kts | 275° |
| 2026-04-24 23:27 | 23.25998 | 49.66263 | 24904 ft | 462 kts | 275° |
| 2026-04-24 23:27 | 23.26335 | 49.62788 | 24905 ft | 462 kts | 275° |
| 2026-04-24 23:27 | 23.26564 | 49.60437 | 24904 ft | 463 kts | 275° |
| 2026-04-24 23:27 | 23.26904 | 49.56953 | 24907 ft | 462 kts | 275° |
| 2026-04-24 23:28 | 23.27241 | 49.53480 | 24914 ft | 462 kts | 275° |
| 2026-04-24 23:28 | 23.27577 | 49.49998 | 24911 ft | 462 kts | 275° |
| 2026-04-24 23:28 | 23.27909 | 49.46522 | 24908 ft | 462 kts | 275° |
| 2026-04-24 23:28 | 23.28239 | 49.43040 | 24902 ft | 462 kts | 275° |
| 2026-04-24 23:29 | 23.28568 | 49.39558 | 24905 ft | 463 kts | 275° |
| 2026-04-24 23:29 | 23.28893 | 49.36088 | 24907 ft | 463 kts | 275° |
| 2026-04-24 23:29 | 23.29221 | 49.32599 | 24908 ft | 463 kts | 275° |
| 2026-04-24 23:29 | 23.29550 | 49.29110 | 24913 ft | 463 kts | 275° |
| 2026-04-24 23:30 | 23.29878 | 49.25628 | 24915 ft | 463 kts | 275° |
| 2026-04-24 23:30 | 23.30206 | 49.22150 | 24917 ft | 463 kts | 275° |
| 2026-04-24 23:30 | 23.30532 | 49.18664 | 24915 ft | 463 kts | 275° |
| 2026-04-24 23:30 | 23.30858 | 49.15179 | 24922 ft | 463 kts | 275° |
| 2026-04-24 23:31 | 23.31183 | 49.11695 | 24923 ft | 463 kts | 275° |
| 2026-04-24 23:31 | 23.31509 | 49.08205 | 24923 ft | 463 kts | 275° |
| 2026-04-24 23:31 | 23.31835 | 49.04721 | 24926 ft | 463 kts | 275° |
| 2026-04-24 23:31 | 23.32161 | 49.01225 | 24930 ft | 464 kts | 274° |
| 2026-04-24 23:32 | 23.32487 | 48.97736 | 24931 ft | 464 kts | 274° |
| 2026-04-24 23:32 | 23.32813 | 48.94236 | 24936 ft | 464 kts | 275° |
| 2026-04-24 23:32 | 23.33136 | 48.90750 | 24935 ft | 464 kts | 274° |
| 2026-04-24 23:32 | 23.33455 | 48.87250 | 24934 ft | 464 kts | 274° |
| 2026-04-24 23:33 | 23.33770 | 48.83751 | 24939 ft | 464 kts | 274° |
| 2026-04-24 23:33 | 23.34084 | 48.80253 | 24937 ft | 464 kts | 274° |
| 2026-04-24 23:33 | 23.34401 | 48.76757 | 24936 ft | 464 kts | 274° |
| 2026-04-24 23:33 | 23.34723 | 48.73259 | 24936 ft | 464 kts | 274° |
| 2026-04-24 23:34 | 23.35046 | 48.69758 | 24935 ft | 464 kts | 274° |
| 2026-04-24 23:34 | 23.35366 | 48.66258 | 24939 ft | 465 kts | 274° |
| 2026-04-24 23:34 | 23.35681 | 48.62760 | 24936 ft | 465 kts | 274° |
| 2026-04-24 23:34 | 23.35993 | 48.59262 | 24940 ft | 465 kts | 274° |
| 2026-04-24 23:35 | 23.36306 | 48.55717 | 24935 ft | 465 kts | 274° |
| 2026-04-24 23:35 | 23.36616 | 48.52216 | 24936 ft | 465 kts | 274° |
| 2026-04-24 23:35 | 23.36929 | 48.48708 | 24935 ft | 465 kts | 274° |
| 2026-04-24 23:35 | 23.37242 | 48.45209 | 24934 ft | 465 kts | 274° |
| 2026-04-24 23:36 | 23.37554 | 48.41695 | 24929 ft | 465 kts | 274° |
| 2026-04-24 23:36 | 23.37871 | 48.38188 | 24932 ft | 466 kts | 275° |
| 2026-04-24 23:36 | 23.38529 | 48.34730 | 24929 ft | 468 kts | 286° |
| 2026-04-24 23:36 | 23.39815 | 48.31484 | 24935 ft | 472 kts | 297° |
| 2026-04-24 23:37 | 23.41583 | 48.28451 | 24935 ft | 473 kts | 300° |
| 2026-04-24 23:37 | 23.43375 | 48.25451 | 24939 ft | 473 kts | 300° |
| 2026-04-24 23:37 | 23.46943 | 48.19434 | 24944 ft | 472 kts | 300° |
| 2026-04-24 23:38 | 23.48717 | 48.16428 | 24947 ft | 472 kts | 300° |
| 2026-04-24 23:38 | 23.50513 | 48.13382 | 24953 ft | 472 kts | 300° |
| 2026-04-24 23:38 | 23.52289 | 48.10372 | 24955 ft | 471 kts | 300° |
| 2026-04-24 23:38 | 23.54067 | 48.07361 | 24952 ft | 471 kts | 300° |
| 2026-04-24 23:39 | 23.55837 | 48.04368 | 24954 ft | 471 kts | 300° |
| 2026-04-24 23:39 | 23.57614 | 48.01356 | 24955 ft | 472 kts | 300° |
| 2026-04-24 23:39 | 23.59395 | 47.98335 | 24957 ft | 472 kts | 300° |
| 2026-04-24 23:39 | 23.61168 | 47.95326 | 24968 ft | 471 kts | 300° |
| 2026-04-24 23:40 | 23.62938 | 47.92316 | 24968 ft | 471 kts | 300° |
| 2026-04-24 23:40 | 23.64704 | 47.89307 | 24968 ft | 471 kts | 299° |
| 2026-04-24 23:40 | 23.66498 | 47.86252 | 24975 ft | 471 kts | 300° |
| 2026-04-24 23:40 | 23.68263 | 47.83249 | 24973 ft | 471 kts | 299° |
| 2026-04-24 23:41 | 23.70033 | 47.80237 | 24972 ft | 471 kts | 299° |
| 2026-04-24 23:41 | 23.71799 | 47.77230 | 24983 ft | 470 kts | 299° |
| 2026-04-24 23:41 | 23.73588 | 47.74184 | 24983 ft | 470 kts | 299° |
| 2026-04-24 23:41 | 23.75403 | 47.71089 | 24989 ft | 470 kts | 299° |
| 2026-04-24 23:42 | 23.77161 | 47.68091 | 24994 ft | 470 kts | 299° |
| 2026-04-24 23:42 | 23.79079 | 47.65184 | 24994 ft | 475 kts | 309° |
| 2026-04-24 23:42 | 23.81584 | 47.62822 | 25001 ft | 483 kts | 323° |
| 2026-04-24 23:42 | 23.84635 | 47.61203 | 25008 ft | 492 kts | 338° |
| 2026-04-24 23:43 | 23.88021 | 47.60509 | 25013 ft | 502 kts | 354° |
| 2026-04-24 23:43 | 23.91528 | 47.60671 | 25025 ft | 507 kts | 0° |
| 2026-04-24 23:43 | 23.95053 | 47.60973 | 25040 ft | 507 kts | 0° |
| 2026-04-24 23:43 | 23.98556 | 47.61277 | 25049 ft | 507 kts | 0° |
| 2026-04-24 23:44 | 24.02071 | 47.61577 | 25053 ft | 507 kts | 0° |
| 2026-04-24 23:44 | 24.05591 | 47.61874 | 25052 ft | 507 kts | 0° |
| 2026-04-24 23:44 | 24.09110 | 47.62163 | 25055 ft | 507 kts | 0° |
| 2026-04-24 23:44 | 24.12624 | 47.62447 | 25054 ft | 507 kts | 0° |
| 2026-04-24 23:45 | 24.16147 | 47.62733 | 25049 ft | 507 kts | 0° |
| 2026-04-24 23:45 | 24.19666 | 47.63019 | 25046 ft | 507 kts | 0° |
| 2026-04-24 23:45 | 24.23191 | 47.63310 | 25039 ft | 508 kts | 0° |
| 2026-04-24 23:45 | 24.26713 | 47.63604 | 25031 ft | 508 kts | 0° |
| 2026-04-24 23:46 | 24.30235 | 47.63895 | 25026 ft | 508 kts | 0° |
| 2026-04-24 23:46 | 24.33766 | 47.64185 | 25021 ft | 508 kts | 0° |
| 2026-04-24 23:46 | 24.37292 | 47.64475 | 25013 ft | 508 kts | 0° |
| 2026-04-24 23:46 | 24.40816 | 47.64768 | 25010 ft | 508 kts | 0° |
| 2026-04-24 23:47 | 24.44356 | 47.65065 | 25008 ft | 509 kts | 0° |
| 2026-04-24 23:47 | 24.47886 | 47.65362 | 25011 ft | 509 kts | 1° |
| 2026-04-24 23:47 | 24.51416 | 47.65659 | 25010 ft | 509 kts | 1° |
| 2026-04-24 23:47 | 24.54945 | 47.65956 | 25009 ft | 509 kts | 1° |
| 2026-04-24 23:48 | 24.58479 | 47.66254 | 25005 ft | 510 kts | 1° |
| 2026-04-24 23:48 | 24.62015 | 47.66549 | 25011 ft | 510 kts | 1° |
| 2026-04-24 23:48 | 24.65548 | 47.66842 | 25015 ft | 510 kts | 1° |
| 2026-04-24 23:48 | 24.69093 | 47.67134 | 25018 ft | 510 kts | 1° |
| 2026-04-24 23:49 | 24.72659 | 47.67428 | 25016 ft | 510 kts | 1° |
| 2026-04-24 23:49 | 24.76202 | 47.67718 | 25024 ft | 510 kts | 1° |
| 2026-04-24 23:49 | 24.79743 | 47.68009 | 25025 ft | 511 kts | 1° |
| 2026-04-24 23:49 | 24.83286 | 47.68303 | 25028 ft | 511 kts | 1° |
| 2026-04-24 23:50 | 24.86829 | 47.68601 | 25039 ft | 511 kts | 1° |
| 2026-04-24 23:50 | 24.90380 | 47.68898 | 25039 ft | 511 kts | 1° |
| 2026-04-24 23:50 | 24.92760 | 47.69098 | 25043 ft | 511 kts | 1° |
| 2026-04-24 23:50 | 24.96301 | 47.69400 | 25043 ft | 512 kts | 1° |
| 2026-04-24 23:51 | 24.99858 | 47.69701 | 25046 ft | 512 kts | 1° |
| 2026-04-24 23:51 | 25.04576 | 47.70097 | 25051 ft | 512 kts | 0° |
| 2026-04-24 23:51 | 25.06928 | 47.70293 | 25055 ft | 511 kts | 0° |
| 2026-04-24 23:51 | 25.10519 | 47.70591 | 25047 ft | 511 kts | 0° |
| 2026-04-24 23:52 | 25.14076 | 47.70886 | 25046 ft | 512 kts | 0° |
| 2026-04-24 23:52 | 25.17632 | 47.71184 | 25047 ft | 512 kts | 0° |
| 2026-04-24 23:52 | 25.21182 | 47.71487 | 25050 ft | 513 kts | 0° |
| 2026-04-24 23:52 | 25.24739 | 47.71791 | 25054 ft | 512 kts | 0° |
| 2026-04-24 23:53 | 25.28299 | 47.72124 | 25053 ft | 514 kts | 4° |
| 2026-04-24 23:53 | 25.31787 | 47.73033 | 25049 ft | 520 kts | 17° |
| 2026-04-24 23:53 | 25.35059 | 47.74774 | 25047 ft | 525 kts | 30° |
| 2026-04-24 23:53 | 25.37928 | 47.77297 | 25038 ft | 529 kts | 44° |
| 2026-04-24 23:54 | 25.40187 | 47.80421 | 25037 ft | 531 kts | 58° |
| 2026-04-24 23:54 | 25.42018 | 47.84062 | 25041 ft | 531 kts | 61° |
| 2026-04-24 23:54 | 25.43767 | 47.87654 | 25047 ft | 531 kts | 61° |
| 2026-04-24 23:54 | 25.45514 | 47.91251 | 25046 ft | 531 kts | 61° |
| 2026-04-24 23:55 | 25.47266 | 47.94864 | 25022 ft | 531 kts | 62° |
| 2026-04-24 23:55 | 25.49006 | 47.98447 | 24684 ft | 527 kts | 62° |
| 2026-04-24 23:55 | 25.50744 | 48.02025 | 24572 ft | 527 kts | 62° |
| 2026-04-24 23:55 | 25.52479 | 48.05598 | 24466 ft | 526 kts | 62° |
| 2026-04-24 23:56 | 25.54214 | 48.09169 | 24357 ft | 526 kts | 62° |
| 2026-04-24 23:56 | 25.55945 | 48.12731 | 24246 ft | 525 kts | 62° |
| 2026-04-24 23:56 | 25.57672 | 48.16284 | 24153 ft | 524 kts | 62° |
| 2026-04-24 23:56 | 25.59401 | 48.19843 | 24059 ft | 523 kts | 62° |
| 2026-04-24 23:57 | 25.61123 | 48.23393 | 23939 ft | 522 kts | 62° |
| 2026-04-24 23:57 | 25.62850 | 48.26959 | 23841 ft | 522 kts | 62° |
| 2026-04-24 23:57 | 25.64558 | 48.30490 | 23739 ft | 521 kts | 62° |
| 2026-04-24 23:57 | 25.66265 | 48.34029 | 23632 ft | 520 kts | 62° |
| 2026-04-24 23:58 | 25.67948 | 48.37523 | 23529 ft | 520 kts | 62° |
| 2026-04-24 23:58 | 25.69716 | 48.41072 | 23415 ft | 518 kts | 60° |
| 2026-04-24 23:58 | 25.71579 | 48.44500 | 23273 ft | 518 kts | 58° |
| 2026-04-24 23:58 | 25.73553 | 48.47899 | 23160 ft | 517 kts | 57° |
| 2026-04-24 23:59 | 25.75548 | 48.51227 | 23043 ft | 516 kts | 56° |
| 2026-04-24 23:59 | 25.77542 | 48.54539 | 22919 ft | 515 kts | 57° |
| 2026-04-24 23:59 | 25.79511 | 48.57854 | 22798 ft | 514 kts | 57° |
| 2026-04-24 23:59 | 25.81417 | 48.61133 | 22684 ft | 513 kts | 58° |
| 2026-04-25 00:00 | 25.83347 | 48.64513 | 22550 ft | 512 kts | 58° |
| 2026-04-25 00:00 | 25.85300 | 48.67980 | 22445 ft | 512 kts | 58° |
| 2026-04-25 00:00 | 25.87181 | 48.71333 | 22330 ft | 512 kts | 58° |
| 2026-04-25 00:00 | 25.89072 | 48.74688 | 22216 ft | 511 kts | 58° |
| 2026-04-25 00:01 | 25.90964 | 48.78022 | 22099 ft | 511 kts | 58° |
| 2026-04-25 00:01 | 25.92857 | 48.81347 | 21983 ft | 511 kts | 58° |
| 2026-04-25 00:01 | 25.94763 | 48.84688 | 21872 ft | 509 kts | 58° |
| 2026-04-25 00:01 | 25.96663 | 48.87977 | 21717 ft | 500 kts | 57° |
| 2026-04-25 00:02 | 25.98564 | 48.91189 | 21159 ft | 494 kts | 57° |
| 2026-04-25 00:02 | 26.00460 | 48.94342 | 20613 ft | 489 kts | 56° |
| 2026-04-25 00:02 | 26.02347 | 48.97465 | 20057 ft | 484 kts | 56° |
| 2026-04-25 00:02 | 26.04233 | 49.00596 | 19483 ft | 479 kts | 57° |
| 2026-04-25 00:03 | 26.06078 | 49.03672 | 18912 ft | 475 kts | 57° |
| 2026-04-25 00:03 | 26.07870 | 49.06682 | 18339 ft | 470 kts | 57° |
| 2026-04-25 00:03 | 26.09683 | 49.09743 | 17677 ft | 465 kts | 57° |
| 2026-04-25 00:03 | 26.11446 | 49.12731 | 17094 ft | 460 kts | 58° |
| 2026-04-25 00:04 | 26.13196 | 49.15693 | 16495 ft | 455 kts | 58° |
| 2026-04-25 00:04 | 26.14928 | 49.18620 | 15893 ft | 449 kts | 58° |
| 2026-04-25 00:04 | 26.16638 | 49.21508 | 15299 ft | 445 kts | 58° |
| 2026-04-25 00:04 | 26.18331 | 49.24374 | 14691 ft | 441 kts | 58° |
| 2026-04-25 00:05 | 26.20008 | 49.27213 | 14093 ft | 437 kts | 58° |
| 2026-04-25 00:05 | 26.21667 | 49.30020 | 13462 ft | 433 kts | 58° |
| 2026-04-25 00:05 | 26.23315 | 49.32810 | 12880 ft | 427 kts | 58° |
| 2026-04-25 00:05 | 26.24930 | 49.35548 | 12305 ft | 421 kts | 58° |
| 2026-04-25 00:06 | 26.26524 | 49.38257 | 11717 ft | 414 kts | 58° |
| 2026-04-25 00:06 | 26.28088 | 49.40917 | 11141 ft | 408 kts | 58° |
| 2026-04-25 00:06 | 26.29634 | 49.43541 | 10567 ft | 402 kts | 58° |
| 2026-04-25 00:06 | 26.31144 | 49.46104 | 10363 ft | 385 kts | 58° |
| 2026-04-25 00:07 | 26.32581 | 49.48546 | 10238 ft | 369 kts | 58° |
| 2026-04-25 00:07 | 26.33959 | 49.50891 | 10074 ft | 355 kts | 58° |
| 2026-04-25 00:07 | 26.35177 | 49.53228 | 9738 ft | 346 kts | 70° |
| 2026-04-25 00:07 | 26.35611 | 49.55830 | 9100 ft | 343 kts | 94° |
| 2026-04-25 00:08 | 26.35118 | 49.58404 | 8547 ft | 336 kts | 116° |
| 2026-04-25 00:08 | 26.33952 | 49.60482 | 8048 ft | 332 kts | 130° |
| 2026-04-25 00:08 | 26.32527 | 49.62542 | 7497 ft | 331 kts | 129° |
| 2026-04-25 00:08 | 26.31120 | 49.64575 | 6972 ft | 331 kts | 129° |
| 2026-04-25 00:09 | 26.29712 | 49.66609 | 6434 ft | 330 kts | 129° |
| 2026-04-25 00:09 | 26.28307 | 49.68639 | 5879 ft | 330 kts | 129° |
| 2026-04-25 00:09 | 26.26923 | 49.70634 | 5663 ft | 318 kts | 129° |
| 2026-04-25 00:09 | 26.25467 | 49.72365 | 5589 ft | 301 kts | 147° |
| 2026-04-25 00:10 | 26.23610 | 49.73368 | 5509 ft | 284 kts | 161° |
| 2026-04-25 00:10 | 26.21783 | 49.74075 | 5404 ft | 273 kts | 163° |
| 2026-04-25 00:10 | 26.20094 | 49.74885 | 5290 ft | 264 kts | 146° |
| 2026-04-25 00:10 | 26.18919 | 49.76389 | 5175 ft | 256 kts | 115° |
| 2026-04-25 00:11 | 26.18583 | 49.78268 | 5051 ft | 245 kts | 84° |
| 2026-04-25 00:11 | 26.18775 | 49.79504 | 4943 ft | 239 kts | 76° |
| 2026-04-25 00:11 | 26.19345 | 49.81867 | 4553 ft | 235 kts | 71° |
| 2026-04-25 00:11 | 26.20043 | 49.83482 | 4227 ft | 230 kts | 51° |
| 2026-04-25 00:12 | 26.20767 | 49.84374 | 4013 ft | 226 kts | 37° |
| 2026-04-25 00:12 | 26.22068 | 49.85274 | 3697 ft | 221 kts | 18° |
| 2026-04-25 00:12 | 26.23554 | 49.85657 | 3384 ft | 215 kts | 359° |
| 2026-04-25 00:12 | 26.25018 | 49.85490 | 3092 ft | 210 kts | 342° |
| 2026-04-25 00:13 | 26.26431 | 49.85048 | 2980 ft | 211 kts | 343° |
| 2026-04-25 00:13 | 26.27865 | 49.84611 | 2983 ft | 211 kts | 343° |
| 2026-04-25 00:13 | 26.29287 | 49.84174 | 2988 ft | 211 kts | 342° |
| 2026-04-25 00:13 | 26.30653 | 49.83755 | 2894 ft | 194 kts | 342° |
| 2026-04-25 00:14 | 26.31912 | 49.83368 | 2704 ft | 181 kts | 342° |
| 2026-04-25 00:14 | 26.33070 | 49.83011 | 2492 ft | 170 kts | 342° |
| 2026-04-25 00:14 | 26.34200 | 49.82663 | 2273 ft | 162 kts | 342° |
| 2026-04-25 00:14 | 26.35252 | 49.82338 | 2073 ft | 154 kts | 343° |
| 2026-04-25 00:15 | 26.36261 | 49.82027 | 1875 ft | 147 kts | 343° |
| 2026-04-25 00:15 | 26.37221 | 49.81731 | 1702 ft | 142 kts | 343° |
| 2026-04-25 00:15 | 26.38180 | 49.81435 | 1513 ft | 141 kts | 342° |
| 2026-04-25 00:15 | 26.39111 | 49.81148 | 1325 ft | 140 kts | 342° |
| 2026-04-25 00:16 | 26.40061 | 49.80855 | 1137 ft | 140 kts | 342° |
| 2026-04-25 00:16 | 26.40999 | 49.80565 | 959 ft | 139 kts | 342° |
| 2026-04-25 00:16 | 26.41931 | 49.80277 | 786 ft | 139 kts | 344° |
| 2026-04-25 00:16 | 26.42864 | 49.79990 | 610 ft | 139 kts | 343° |
| 2026-04-25 00:17 | 26.43792 | 49.79695 | 384 ft | 139 kts | 342° |
| 2026-04-25 00:17 | 26.44716 | 49.79403 | 259 ft | 138 kts | 346° |
| 2026-04-25 00:17 | 26.45643 | 49.79127 | 106 ft | 137 kts | 345° |
| 2026-04-25 00:17 | 26.46479 | 49.78873 | 91 ft | 110 kts | 344° |
| 2026-04-25 00:18 | 26.47048 | 49.78706 | 90 ft | 59 kts | 1° |
| 2026-04-25 00:18 | 26.47376 | 49.78785 | 86 ft | 42 kts | 14° |
| 2026-04-25 00:18 | 26.47456 | 49.78878 | 88 ft | 15 kts | 117° |
| 2026-04-25 00:18 | 26.47375 | 49.78923 | 87 ft | 14 kts | 168° |
| 2026-04-25 00:19 | 26.47276 | 49.78951 | 88 ft | 16 kts | 165° |
| 2026-04-25 00:19 | 26.47164 | 49.78986 | 86 ft | 18 kts | 164° |
| 2026-04-25 00:19 | 26.47047 | 49.79023 | 87 ft | 20 kts | 165° |
| 2026-04-25 00:19 | 26.46980 | 49.79107 | 85 ft | 14 kts | 66° |
| 2026-04-25 00:20 | 26.47010 | 49.79224 | 86 ft | 17 kts | 73° |
| 2026-04-25 00:20 | 26.47017 | 49.79332 | 85 ft | 12 kts | 113° |
| 2026-04-25 00:20 | 26.47015 | 49.79395 | 89 ft | 8 kts | 63° |
| 2026-04-25 00:20 | 26.47020 | 49.79408 | 88 ft | 1 kts | 64° |
| 2026-04-25 00:21 | 26.47024 | 49.79416 | 87 ft | 0 kts | 62° |